Camargo, Oklahoma
Current Conditions -  °F | °C
As of 6:15 PM on Wednesday 22 Oct 2014 (Local Time) from KWWR Reporting Station
Scattered Clouds Scattered Clouds  
Wind Chill: 63°   Ceiling: Unl
Heat Index: 63°   Visibility: 10mi
Dew Point: 55°   Wind: 12mph
Humidity: 77%   Direction: 170°S
Pressure: 30.09"   Gusts: 20mph
Location:  36.02°N, 99.29°W
Report Text: KWWR 222315Z AUTO 17010G17KT 10SM SCT034 17/13 A3009 RMK AO2
Loading
Personal Weather Stations






























Interactive Weather Map
Tropical Storm Tracking
New forecast layout! Learn more

10-Day Weather Forecast

Advertisements
Track Severe Weather on mobile